createdAt,value
2019-04-26T00:03:00.995Z,59.10
2019-04-26T00:05:34.970Z,58.90
2019-04-26T00:08:04.605Z,59.00
2019-04-26T00:10:36.735Z,59.10
2019-04-26T00:13:07.775Z,58.70
2019-04-26T00:15:40.042Z,58.70
2019-04-26T00:18:11.727Z,58.40
2019-04-26T00:20:43.637Z,58.30
2019-04-26T00:23:14.431Z,58.60
2019-04-26T00:25:45.359Z,58.50
2019-04-26T00:28:16.914Z,58.60
2019-04-26T00:30:47.879Z,58.30
2019-04-26T00:33:19.411Z,58.40
2019-04-26T00:35:50.388Z,58.30
2019-04-26T00:38:22.315Z,58.10
2019-04-26T00:40:54.366Z,57.90
2019-04-26T00:43:25.998Z,58.00
2019-04-26T00:45:58.009Z,57.50
2019-04-26T00:48:30.686Z,57.20
2019-04-26T00:51:02.452Z,57.30
2019-04-26T00:53:35.949Z,57.10
2019-04-26T00:56:09.231Z,57.20
2019-04-26T00:58:41.486Z,56.70
2019-04-26T01:01:15.080Z,57.20
2019-04-26T01:03:46.545Z,56.30
2019-04-26T01:06:21.095Z,56.10
2019-04-26T01:08:56.668Z,55.90
2019-04-26T01:11:27.978Z,55.90
2019-04-26T01:13:59.002Z,55.70
2019-04-26T01:16:30.887Z,55.50
2019-04-26T01:19:05.681Z,55.30
2019-04-26T01:21:38.866Z,55.10
2019-04-26T01:24:12.206Z,55.00
2019-04-26T01:26:44.365Z,54.70
2019-04-26T01:29:18.615Z,54.70
2019-04-26T01:31:55.500Z,54.20
2019-04-26T01:34:28.254Z,54.30
2019-04-26T01:36:59.965Z,54.00
2019-04-26T01:39:32.027Z,53.40
2019-04-26T01:42:02.922Z,53.50
2019-04-26T01:44:38.716Z,53.50
2019-04-26T01:47:13.346Z,53.10
2019-04-26T01:49:44.432Z,52.60
2019-04-26T01:52:16.781Z,52.80
2019-04-26T01:54:48.681Z,52.60
2019-04-26T01:57:22.245Z,52.40
2019-04-26T01:59:57.281Z,51.90
2019-04-26T02:02:29.844Z,51.80
2019-04-26T02:05:13.813Z,52.10
2019-04-26T02:07:45.824Z,51.40
2019-04-26T02:10:25.285Z,51.10
2019-04-26T02:12:57.915Z,51.30
2019-04-26T02:15:31.327Z,51.00
2019-04-26T02:18:02.999Z,50.40
2019-04-26T02:20:37.661Z,50.50
2019-04-26T02:23:09.863Z,49.90
2019-04-26T02:25:40.862Z,49.50
2019-04-26T02:28:11.812Z,49.00
2019-04-26T02:30:42.847Z,49.30
2019-04-26T02:33:14.428Z,49.00
2019-04-26T02:35:45.435Z,49.00
2019-04-26T02:38:39.534Z,49.00
2019-04-26T02:41:11.981Z,48.20
2019-04-26T02:43:45.168Z,48.50
2019-04-26T02:46:19.684Z,48.00
2019-04-26T02:48:54.196Z,48.10
2019-04-26T02:51:28.468Z,48.20
2019-04-26T02:54:00.302Z,47.90
2019-04-26T02:56:34.098Z,47.70
2019-04-26T02:59:08.007Z,47.70
2019-04-26T03:01:40.159Z,47.20
2019-04-26T03:04:11.148Z,47.20
2019-04-26T03:06:43.897Z,47.40
2019-04-26T03:09:17.410Z,47.40
2019-04-26T03:11:51.106Z,47.50
2019-04-26T03:14:21.821Z,47.60
2019-04-26T03:16:56.627Z,46.60
2019-04-26T03:19:31.482Z,46.80
2019-04-26T03:22:04.637Z,46.80
2019-04-26T03:24:39.269Z,46.80
2019-04-26T03:27:12.520Z,46.90
2019-04-26T03:29:45.760Z,47.00
2019-04-26T03:32:19.113Z,47.60
2019-04-26T03:34:55.167Z,46.80
2019-04-26T03:37:28.150Z,46.30
2019-04-26T03:40:02.726Z,45.00
2019-04-26T03:42:37.047Z,45.30
2019-04-26T03:45:10.973Z,45.70
2019-04-26T03:47:45.881Z,46.50
2019-04-26T03:50:18.943Z,46.00
2019-04-26T03:52:52.545Z,45.30
2019-04-26T03:55:24.267Z,45.70
2019-04-26T03:57:58.745Z,45.50
2019-04-26T04:00:30.300Z,44.60
2019-04-26T04:03:03.128Z,44.20
2019-04-26T04:05:39.608Z,44.90
2019-04-26T04:08:12.372Z,45.40
2019-04-26T04:10:47.704Z,44.00
2019-04-26T04:13:20.718Z,44.20
2019-04-26T04:15:54.015Z,44.30
2019-04-26T04:18:27.172Z,44.70
2019-04-26T04:21:01.824Z,44.80
2019-04-26T04:23:35.223Z,44.20
2019-04-26T04:26:09.533Z,42.70
2019-04-26T04:28:44.064Z,43.20
2019-04-26T04:31:17.642Z,43.40
2019-04-26T04:33:52.619Z,43.00
2019-04-26T04:36:28.623Z,43.00
2019-04-26T04:39:11.116Z,43.20
2019-04-26T04:41:37.456Z,43.10
2019-04-26T04:44:10.893Z,43.00
2019-04-26T04:46:47.398Z,43.40
2019-04-26T04:49:19.915Z,43.30
2019-04-26T04:51:54.168Z,43.40
2019-04-26T04:54:27.533Z,43.50
2019-04-26T04:57:01.014Z,43.70
2019-04-26T04:59:34.838Z,43.30
2019-04-26T05:02:09.625Z,43.50
2019-04-26T05:04:45.163Z,43.30
2019-04-26T05:07:19.877Z,43.10
2019-04-26T05:09:53.694Z,42.80
2019-04-26T05:12:27.248Z,41.50
2019-04-26T05:15:01.419Z,40.80
2019-04-26T05:17:35.890Z,40.40
2019-04-26T05:20:09.918Z,40.20
2019-04-26T05:22:44.715Z,40.90
2019-04-26T05:25:33.627Z,38.70
2019-04-26T05:28:11.492Z,37.70
2019-04-26T05:30:46.605Z,38.80
2019-04-26T05:33:20.511Z,39.10
2019-04-26T05:35:55.245Z,39.50
2019-04-26T05:38:38.558Z,37.70
2019-04-26T05:41:10.965Z,37.90
2019-04-26T05:43:45.748Z,37.90
2019-04-26T05:46:20.596Z,37.90
2019-04-26T05:48:54.003Z,38.70
2019-04-26T05:51:28.609Z,37.50
2019-04-26T05:54:03.661Z,38.20
2019-04-26T05:56:36.495Z,37.70
2019-04-26T05:59:10.368Z,37.50
2019-04-26T06:01:43.504Z,37.80
2019-04-26T06:04:17.923Z,37.80
2019-04-26T06:06:53.114Z,36.60
2019-04-26T06:09:27.931Z,37.40
2019-04-26T06:12:02.307Z,37.00
2019-04-26T06:14:43.263Z,36.90
2019-04-26T06:17:17.704Z,37.20
2019-04-26T06:19:53.207Z,37.30
2019-04-26T06:22:26.568Z,37.30
2019-04-26T06:25:00.428Z,37.90
2019-04-26T06:27:35.603Z,38.10
2019-04-26T06:30:10.464Z,38.10
2019-04-26T06:32:55.930Z,37.00
2019-04-26T06:35:20.191Z,38.20
2019-04-26T06:37:55.345Z,36.60
2019-04-26T06:40:28.618Z,37.20
2019-04-26T06:43:03.021Z,36.90
2019-04-26T06:45:38.064Z,36.90
2019-04-26T06:48:12.700Z,36.30
2019-04-26T06:50:49.388Z,36.60
2019-04-26T06:53:26.052Z,37.10
2019-04-26T06:56:02.978Z,37.20
2019-04-26T06:58:36.351Z,36.90
2019-04-26T07:01:11.369Z,35.70
2019-04-26T07:03:45.282Z,37.30
2019-04-26T07:06:18.541Z,37.60
2019-04-26T07:08:57.533Z,37.20
2019-04-26T07:11:26.490Z,37.50
2019-04-26T07:14:00.608Z,37.30
2019-04-26T07:16:43.590Z,37.10
2019-04-26T07:19:17.526Z,36.40
2019-04-26T07:21:49.116Z,35.40
2019-04-26T07:24:25.106Z,36.20
2019-04-26T07:26:57.469Z,37.20
2019-04-26T07:29:30.944Z,36.70
2019-04-26T07:32:05.239Z,36.00
2019-04-26T07:34:41.249Z,34.80
2019-04-26T07:37:14.400Z,35.10
2019-04-26T07:39:48.863Z,35.00
2019-04-26T07:42:23.314Z,35.90
2019-04-26T07:44:58.322Z,35.60
2019-04-26T07:47:31.630Z,35.30
2019-04-26T07:50:05.084Z,36.30
2019-04-26T07:52:38.860Z,36.60
2019-04-26T07:55:12.805Z,36.40
2019-04-26T07:57:46.186Z,36.60
2019-04-26T08:00:18.293Z,36.60
2019-04-26T08:02:52.941Z,35.80
2019-04-26T08:05:27.715Z,36.20
2019-04-26T08:08:02.468Z,36.30
2019-04-26T08:10:36.121Z,36.50
2019-04-26T08:13:10.007Z,36.90
2019-04-26T08:15:45.188Z,37.00
2019-04-26T08:18:20.191Z,37.20
2019-04-26T08:20:54.295Z,36.90
2019-04-26T08:23:41.079Z,36.60
2019-04-26T08:26:02.661Z,37.00
2019-04-26T08:28:36.743Z,37.00
2019-04-26T08:31:10.863Z,37.20
2019-04-26T08:33:48.979Z,37.40
2019-04-26T08:36:23.190Z,37.10
2019-04-26T08:38:54.053Z,37.30
2019-04-26T08:41:26.222Z,37.80
2019-04-26T08:44:03.755Z,37.70
2019-04-26T08:46:37.296Z,38.00
2019-04-26T08:49:13.039Z,38.10
2019-04-26T08:51:46.658Z,38.20
2019-04-26T08:54:20.794Z,38.20
2019-04-26T08:56:54.100Z,38.30
2019-04-26T08:59:27.777Z,38.60
2019-04-26T09:02:02.131Z,38.60
2019-04-26T09:04:36.730Z,38.80
2019-04-26T09:07:11.733Z,38.90
2019-04-26T09:09:56.487Z,39.30
2019-04-26T09:12:23.116Z,39.40
2019-04-26T09:14:54.205Z,39.60
2019-04-26T09:17:27.820Z,39.90
2019-04-26T09:19:58.246Z,40.10
2019-04-26T09:22:30.669Z,40.30
2019-04-26T09:25:07.294Z,40.40
2019-04-26T09:27:39.526Z,40.40
2019-04-26T09:30:12.440Z,39.70
2019-04-26T09:32:44.493Z,39.80
2019-04-26T09:35:16.325Z,39.40
2019-04-26T09:37:47.263Z,38.10
2019-04-26T09:40:21.532Z,38.80
2019-04-26T09:42:51.851Z,38.70
2019-04-26T09:45:23.988Z,38.40
2019-04-26T09:48:00.724Z,38.50
2019-04-26T09:50:33.041Z,38.30
2019-04-26T09:53:03.783Z,38.40
2019-04-26T09:55:35.490Z,38.70
2019-04-26T09:58:08.641Z,38.50
2019-04-26T10:00:39.964Z,38.90
2019-04-26T10:03:10.832Z,38.90
2019-04-26T10:05:41.638Z,39.50
2019-04-26T10:08:14.462Z,39.50
2019-04-26T10:10:45.273Z,39.60
2019-04-26T10:13:17.330Z,39.70
2019-04-26T10:15:47.892Z,39.80
2019-04-26T10:18:20.276Z,39.90
2019-04-26T10:20:52.188Z,39.90
2019-04-26T10:23:22.877Z,39.90
2019-04-26T10:25:53.653Z,40.10
2019-04-26T10:28:24.981Z,40.20
2019-04-26T10:30:55.681Z,40.40
2019-04-26T10:33:26.495Z,40.40
2019-04-26T10:35:57.842Z,40.70
2019-04-26T10:38:28.494Z,40.80
2019-04-26T10:40:59.118Z,40.90
2019-04-26T10:43:29.976Z,40.90
2019-04-26T10:46:00.480Z,41.00
2019-04-26T10:48:31.357Z,41.10
2019-04-26T10:51:03.381Z,41.30
2019-04-26T10:53:35.629Z,41.40
2019-04-26T10:56:08.320Z,41.40
2019-04-26T10:58:40.461Z,41.50
2019-04-26T11:01:14.273Z,41.60
2019-04-26T11:03:45.044Z,41.60
2019-04-26T11:06:15.744Z,41.70
2019-04-26T11:08:46.703Z,42.30
2019-04-26T11:11:17.495Z,42.30
2019-04-26T11:13:48.144Z,42.20
2019-04-26T11:16:18.912Z,42.30
2019-04-26T11:18:49.691Z,42.40
2019-04-26T11:21:20.816Z,42.60
2019-04-26T11:23:52.613Z,42.70
2019-04-26T11:26:23.375Z,43.10
2019-04-26T11:28:55.788Z,43.20
2019-04-26T11:31:27.768Z,43.20
2019-04-26T11:34:05.164Z,43.50
2019-04-26T11:36:30.598Z,44.10
2019-04-26T11:39:04.898Z,44.00
2019-04-26T11:41:34.043Z,44.10
2019-04-26T11:44:04.834Z,44.20
2019-04-26T11:46:44.613Z,44.30
2019-04-26T11:49:08.311Z,44.20
2019-04-26T11:51:39.187Z,45.40
2019-04-26T11:54:10.215Z,44.80
2019-04-26T11:56:40.892Z,45.10
2019-04-26T11:59:11.597Z,44.90
2019-04-26T12:01:42.434Z,44.80
2019-04-26T12:04:14.412Z,45.10
2019-04-26T12:06:46.218Z,44.90
2019-04-26T12:09:18.111Z,45.10
2019-04-26T12:11:50.843Z,45.60
2019-04-26T12:14:21.085Z,46.40
2019-04-26T12:16:58.868Z,46.20
2019-04-26T12:19:23.807Z,46.40
2019-04-26T12:21:54.783Z,46.40
2019-04-26T12:24:29.444Z,46.50
2019-04-26T12:26:57.842Z,46.50
2019-04-26T12:29:28.679Z,46.30
2019-04-26T12:31:59.719Z,47.10
2019-04-26T12:34:30.505Z,46.90
2019-04-26T12:37:01.157Z,46.30
2019-04-26T12:39:32.336Z,46.40
2019-04-26T12:42:08.259Z,45.10
2019-04-26T12:44:41.073Z,44.70
2019-04-26T12:47:11.594Z,44.20
2019-04-26T12:49:42.250Z,43.00
2019-04-26T12:52:13.117Z,43.70
2019-04-26T12:54:44.489Z,43.60
2019-04-26T12:57:16.389Z,43.10
2019-04-26T12:59:47.258Z,43.30
2019-04-26T13:02:20.823Z,43.50
2019-04-26T13:04:50.273Z,43.30
2019-04-26T13:07:24.309Z,43.90
2019-04-26T13:09:57.178Z,43.40
2019-04-26T13:12:29.860Z,43.20
2019-04-26T13:15:05.212Z,43.50
2019-04-26T13:17:37.501Z,43.40
2019-04-26T13:20:09.281Z,43.40
2019-04-26T13:22:45.953Z,43.50
2019-04-26T13:25:20.110Z,43.30
2019-04-26T13:27:45.640Z,43.70
2019-04-26T13:30:16.941Z,43.80
2019-04-26T13:32:49.232Z,43.60
2019-04-26T13:35:20.745Z,43.90
2019-04-26T13:37:51.569Z,44.10
2019-04-26T13:40:25.729Z,44.00
2019-04-26T13:42:54.721Z,43.90
2019-04-26T13:45:26.826Z,44.20
2019-04-26T13:47:58.839Z,44.50
2019-04-26T13:50:30.942Z,44.70
2019-04-26T13:53:01.686Z,45.00
2019-04-26T13:55:33.849Z,45.50
2019-04-26T13:58:04.898Z,45.80
2019-04-26T14:00:35.673Z,46.60
2019-04-26T14:03:06.731Z,46.60
2019-04-26T14:05:37.539Z,47.50
2019-04-26T14:08:08.517Z,47.80
2019-04-26T14:10:39.283Z,47.70
2019-04-26T14:13:09.999Z,47.30
2019-04-26T14:15:43.967Z,48.40
2019-04-26T14:18:13.339Z,48.90
2019-04-26T14:20:44.143Z,49.90
2019-04-26T14:23:16.474Z,49.90
2019-04-26T14:25:48.651Z,49.00
2019-04-26T14:28:20.409Z,49.70
2019-04-26T14:30:51.930Z,49.70
2019-04-26T14:33:22.744Z,49.60
2019-04-26T14:35:53.926Z,49.30
2019-04-26T14:38:27.878Z,49.10
2019-04-26T14:41:04.233Z,50.10
2019-04-26T14:43:40.585Z,50.20
2019-04-26T14:46:01.976Z,50.50
2019-04-26T14:48:36.127Z,50.60
2019-04-26T14:51:08.309Z,50.80
2019-04-26T14:53:38.015Z,49.90
2019-04-26T14:56:08.953Z,50.00
2019-04-26T14:58:39.732Z,50.40
2019-04-26T15:01:12.440Z,50.30
2019-04-26T15:03:44.711Z,50.60
2019-04-26T15:06:20.115Z,50.80
2019-04-26T15:08:49.084Z,51.30
2019-04-26T15:11:20.756Z,51.20
2019-04-26T15:13:51.730Z,51.40
2019-04-26T15:16:24.386Z,51.20
2019-04-26T15:18:54.716Z,51.70
2019-04-26T15:21:27.435Z,51.70
2019-04-26T15:23:59.417Z,52.10
2019-04-26T15:26:30.209Z,52.10
2019-04-26T15:29:02.536Z,52.30
2019-04-26T15:31:33.149Z,51.60
2019-04-26T15:34:04.024Z,51.80
2019-04-26T15:36:35.198Z,52.20
2019-04-26T15:39:09.101Z,51.70
2019-04-26T15:41:43.007Z,52.20
2019-04-26T15:44:14.862Z,53.30
2019-04-26T15:46:48.523Z,52.60
2019-04-26T15:49:22.328Z,52.60
2019-04-26T15:51:56.368Z,52.60
2019-04-26T15:54:24.864Z,52.50
2019-04-26T15:56:55.946Z,52.70
2019-04-26T15:59:26.910Z,52.70
2019-04-26T16:01:57.879Z,53.50
2019-04-26T16:04:28.658Z,53.90
2019-04-26T16:06:59.605Z,54.10
2019-04-26T16:09:32.279Z,53.70
2019-04-26T16:12:03.711Z,53.60
2019-04-26T16:14:36.863Z,53.60
2019-04-26T16:17:07.296Z,54.40
2019-04-26T16:19:38.211Z,54.00
2019-04-26T16:22:09.226Z,53.80
2019-04-26T16:24:40.163Z,55.20
2019-04-26T16:27:12.545Z,54.30
2019-04-26T16:29:46.757Z,53.60
2019-04-26T16:32:21.938Z,54.20
2019-04-26T16:34:53.974Z,55.10
2019-04-26T16:37:25.082Z,54.60
2019-04-26T16:39:56.387Z,55.20
2019-04-26T16:42:26.984Z,55.50
2019-04-26T16:45:04.004Z,55.70
2019-04-26T16:47:30.225Z,55.10
2019-04-26T16:50:03.684Z,56.00
2019-04-26T16:52:42.295Z,55.70
2019-04-26T16:55:18.302Z,56.10
2019-04-26T16:57:43.912Z,54.90
2019-04-26T17:00:16.208Z,55.40
2019-04-26T17:02:46.074Z,56.70
2019-04-26T17:05:21.014Z,57.60
2019-04-26T17:07:48.838Z,58.40
2019-04-26T17:10:20.873Z,57.20
2019-04-26T17:12:54.248Z,56.70
2019-04-26T17:15:24.290Z,57.30
2019-04-26T17:17:55.296Z,57.20
2019-04-26T17:20:26.203Z,58.00
2019-04-26T17:23:00.851Z,57.50
2019-04-26T17:25:32.136Z,57.30
2019-04-26T17:28:03.453Z,56.50
2019-04-26T17:30:40.985Z,57.00
2019-04-26T17:33:07.070Z,57.30
2019-04-26T17:35:40.944Z,57.70
2019-04-26T17:38:11.451Z,58.20
2019-04-26T17:40:42.977Z,57.60
2019-04-26T17:43:14.010Z,58.00
2019-04-26T17:45:44.766Z,57.60
2019-04-26T17:48:15.704Z,58.10
2019-04-26T17:50:46.663Z,57.30
2019-04-26T17:53:28.112Z,57.40
2019-04-26T17:55:54.180Z,57.80
2019-04-26T17:58:27.580Z,57.70
2019-04-26T18:00:56.489Z,57.40
2019-04-26T18:03:26.869Z,58.60
2019-04-26T18:06:00.681Z,58.30
2019-04-26T18:08:37.061Z,58.30
2019-04-26T18:11:02.260Z,57.80
2019-04-26T18:13:33.271Z,57.60
2019-04-26T18:16:03.990Z,57.50
2019-04-26T18:18:36.045Z,57.70
2019-04-26T18:21:08.339Z,56.90
2019-04-26T18:23:39.186Z,57.00
2019-04-26T18:26:10.027Z,57.00
2019-04-26T18:28:49.367Z,57.10
2019-04-26T18:31:16.431Z,57.00
2019-04-26T18:33:46.677Z,57.30
2019-04-26T18:36:17.773Z,57.80
2019-04-26T18:38:48.760Z,57.10
2019-04-26T18:41:23.154Z,57.00
2019-04-26T18:43:54.146Z,56.70
2019-04-26T18:46:26.071Z,56.70
2019-04-26T18:48:56.760Z,56.50
2019-04-26T18:51:27.930Z,56.30
2019-04-26T18:54:00.320Z,56.50
2019-04-26T18:56:33.734Z,56.60
2019-04-26T18:59:07.172Z,56.70
2019-04-26T19:01:40.662Z,56.90
2019-04-26T19:04:12.546Z,56.60
2019-04-26T19:06:42.280Z,56.60
2019-04-26T19:09:12.296Z,56.90
2019-04-26T19:11:48.586Z,57.00
2019-04-26T19:14:17.012Z,56.60
2019-04-26T19:16:50.633Z,57.00
2019-04-26T19:19:24.213Z,57.60
2019-04-26T19:21:54.765Z,57.40
2019-04-26T19:24:25.755Z,57.40
2019-04-26T19:26:56.653Z,56.90
2019-04-26T19:29:33.574Z,56.40
2019-04-26T19:32:01.417Z,56.50
2019-04-26T19:34:32.322Z,57.00
2019-04-26T19:37:03.479Z,57.50
2019-04-26T19:39:35.790Z,57.90
2019-04-26T19:42:07.381Z,58.10
2019-04-26T19:44:38.366Z,57.80
2019-04-26T19:47:12.176Z,58.00
2019-04-26T19:49:44.164Z,58.10
2019-04-26T19:52:16.290Z,58.10
2019-04-26T19:54:47.178Z,58.70
2019-04-26T19:57:19.310Z,59.30
2019-04-26T19:59:50.075Z,59.50
2019-04-26T20:02:21.077Z,59.60
2019-04-26T20:04:52.099Z,59.60
2019-04-26T20:07:24.248Z,59.40
2019-04-26T20:09:56.250Z,59.40
2019-04-26T20:12:29.464Z,59.80
2019-04-26T20:15:00.051Z,59.70
2019-04-26T20:17:31.018Z,59.40
2019-04-26T20:20:02.083Z,59.30
2019-04-26T20:22:33.109Z,60.20
2019-04-26T20:25:04.006Z,61.00
2019-04-26T20:27:34.838Z,60.90
2019-04-26T20:30:08.425Z,60.30
2019-04-26T20:32:44.013Z,60.20
2019-04-26T20:35:14.691Z,60.30
2019-04-26T20:37:46.404Z,60.30
2019-04-26T20:40:22.624Z,58.40
2019-04-26T20:42:51.189Z,59.30
2019-04-26T20:45:22.473Z,59.20
2019-04-26T20:47:55.644Z,59.50
2019-04-26T20:50:28.589Z,60.80
2019-04-26T20:53:00.839Z,61.70
2019-04-26T20:55:30.712Z,62.00
2019-04-26T20:58:07.002Z,62.30
2019-04-26T21:00:36.524Z,62.20
2019-04-26T21:03:20.149Z,62.00
2019-04-26T21:05:46.079Z,62.30
2019-04-26T21:08:12.411Z,61.40
2019-04-26T21:10:43.558Z,61.00
2019-04-26T21:13:14.742Z,61.00
2019-04-26T21:15:55.997Z,61.00
2019-04-26T21:18:17.788Z,60.50
2019-04-26T21:20:48.793Z,61.00
2019-04-26T21:23:19.742Z,60.80
2019-04-26T21:25:50.264Z,60.50
2019-04-26T21:28:22.415Z,60.10
2019-04-26T21:30:54.581Z,60.50
2019-04-26T21:33:28.643Z,60.20
2019-04-26T21:36:01.861Z,60.50
2019-04-26T21:38:34.209Z,60.40
2019-04-26T21:41:11.142Z,60.90
2019-04-26T21:43:38.295Z,61.80
2019-04-26T21:46:14.555Z,62.30
2019-04-26T21:48:44.576Z,62.80
2019-04-26T21:51:16.067Z,61.60
2019-04-26T21:53:47.243Z,61.50
2019-04-26T21:56:18.141Z,60.80
2019-04-26T21:58:49.010Z,60.80
2019-04-26T22:01:23.479Z,60.90
2019-04-26T22:03:58.329Z,61.40
2019-04-26T22:06:28.770Z,62.00
2019-04-26T22:09:02.753Z,61.70
2019-04-26T22:11:33.416Z,60.30
2019-04-26T22:14:05.649Z,60.20
2019-04-26T22:16:38.176Z,60.70
2019-04-26T22:19:10.347Z,61.90
2019-04-26T22:21:43.533Z,62.10
2019-04-26T22:24:15.811Z,63.00
2019-04-26T22:26:48.107Z,63.70
